sensor_id;sensor_type;location;lat;lon;timestamp;P1;durP1;ratioP1;P2;durP2;ratioP2
505;SDS011;551;48.524;9.056;2023-04-03T00:02:11;3.33;;;3.13;;
505;SDS011;551;48.524;9.056;2023-04-03T00:04:37;3.43;;;3.23;;
505;SDS011;551;48.524;9.056;2023-04-03T00:07:02;3.70;;;3.40;;
505;SDS011;551;48.524;9.056;2023-04-03T00:09:28;4.60;;;3.13;;
505;SDS011;551;48.524;9.056;2023-04-03T00:11:53;4.37;;;3.50;;
505;SDS011;551;48.524;9.056;2023-04-03T00:14:19;5.17;;;3.63;;
505;SDS011;551;48.524;9.056;2023-04-03T00:16:44;3.10;;;2.90;;
505;SDS011;551;48.524;9.056;2023-04-03T00:19:10;4.50;;;3.70;;
505;SDS011;551;48.524;9.056;2023-04-03T00:21:36;5.10;;;3.20;;
505;SDS011;551;48.524;9.056;2023-04-03T00:24:02;5.03;;;2.93;;
505;SDS011;551;48.524;9.056;2023-04-03T00:26:28;3.20;;;2.90;;
505;SDS011;551;48.524;9.056;2023-04-03T00:28:53;2.90;;;2.70;;
505;SDS011;551;48.524;9.056;2023-04-03T00:31:19;4.20;;;3.13;;
505;SDS011;551;48.524;9.056;2023-04-03T00:33:44;4.80;;;3.17;;
505;SDS011;551;48.524;9.056;2023-04-03T00:36:10;3.50;;;3.20;;
505;SDS011;551;48.524;9.056;2023-04-03T00:38:37;4.40;;;2.90;;
505;SDS011;551;48.524;9.056;2023-04-03T00:41:02;3.53;;;2.83;;
505;SDS011;551;48.524;9.056;2023-04-03T00:43:28;3.40;;;2.70;;
505;SDS011;551;48.524;9.056;2023-04-03T00:45:55;2.80;;;2.60;;
505;SDS011;551;48.524;9.056;2023-04-03T00:50:47;3.87;;;3.50;;
505;SDS011;551;48.524;9.056;2023-04-03T00:53:17;3.90;;;3.13;;
505;SDS011;551;48.524;9.056;2023-04-03T00:55:46;7.20;;;3.77;;
505;SDS011;551;48.524;9.056;2023-04-03T00:58:13;4.37;;;3.27;;
505;SDS011;551;48.524;9.056;2023-04-03T01:00:40;3.13;;;2.73;;
505;SDS011;551;48.524;9.056;2023-04-03T01:03:11;3.73;;;3.10;;
505;SDS011;551;48.524;9.056;2023-04-03T01:05:36;3.83;;;3.33;;
505;SDS011;551;48.524;9.056;2023-04-03T01:08:02;5.77;;;3.87;;
505;SDS011;551;48.524;9.056;2023-04-03T01:10:28;5.60;;;2.97;;
505;SDS011;551;48.524;9.056;2023-04-03T01:12:53;5.30;;;3.17;;
505;SDS011;551;48.524;9.056;2023-04-03T01:15:20;3.47;;;3.17;;
505;SDS011;551;48.524;9.056;2023-04-03T01:17:52;4.20;;;3.20;;
505;SDS011;551;48.524;9.056;2023-04-03T01:25:28;4.10;;;3.70;;
505;SDS011;551;48.524;9.056;2023-04-03T01:27:54;4.10;;;3.20;;
505;SDS011;551;48.524;9.056;2023-04-03T01:30:21;4.87;;;3.53;;
505;SDS011;551;48.524;9.056;2023-04-03T01:32:50;3.33;;;3.00;;
505;SDS011;551;48.524;9.056;2023-04-03T01:35:16;4.80;;;3.13;;
505;SDS011;551;48.524;9.056;2023-04-03T01:37:42;4.07;;;3.10;;
505;SDS011;551;48.524;9.056;2023-04-03T01:40:07;4.90;;;3.37;;
505;SDS011;551;48.524;9.056;2023-04-03T01:42:33;4.33;;;3.17;;
505;SDS011;551;48.524;9.056;2023-04-03T01:44:59;3.53;;;3.07;;
505;SDS011;551;48.524;9.056;2023-04-03T01:47:24;3.67;;;3.20;;
505;SDS011;551;48.524;9.056;2023-04-03T01:49:50;4.43;;;3.60;;
505;SDS011;551;48.524;9.056;2023-04-03T01:52:15;4.00;;;3.40;;
505;SDS011;551;48.524;9.056;2023-04-03T01:54:41;3.63;;;3.27;;
505;SDS011;551;48.524;9.056;2023-04-03T01:57:06;3.40;;;3.03;;
505;SDS011;551;48.524;9.056;2023-04-03T01:59:32;3.80;;;3.50;;
505;SDS011;551;48.524;9.056;2023-04-03T02:01:57;8.07;;;3.27;;
505;SDS011;551;48.524;9.056;2023-04-03T02:04:23;4.47;;;3.50;;
505;SDS011;551;48.524;9.056;2023-04-03T02:06:48;6.47;;;3.30;;
505;SDS011;551;48.524;9.056;2023-04-03T02:09:14;5.03;;;3.20;;
505;SDS011;551;48.524;9.056;2023-04-03T02:11:39;4.33;;;3.20;;
505;SDS011;551;48.524;9.056;2023-04-03T02:14:05;2.93;;;2.83;;
505;SDS011;551;48.524;9.056;2023-04-03T02:16:31;5.20;;;3.67;;
505;SDS011;551;48.524;9.056;2023-04-03T02:18:56;3.73;;;3.30;;
505;SDS011;551;48.524;9.056;2023-04-03T02:21:22;3.20;;;2.90;;
505;SDS011;551;48.524;9.056;2023-04-03T02:23:47;3.70;;;3.10;;
505;SDS011;551;48.524;9.056;2023-04-03T02:26:14;3.63;;;3.27;;
505;SDS011;551;48.524;9.056;2023-04-03T02:28:41;4.47;;;3.73;;
505;SDS011;551;48.524;9.056;2023-04-03T02:31:07;3.60;;;3.20;;
505;SDS011;551;48.524;9.056;2023-04-03T02:33:34;6.33;;;3.07;;
505;SDS011;551;48.524;9.056;2023-04-03T02:36:01;3.30;;;3.00;;
505;SDS011;551;48.524;9.056;2023-04-03T02:38:28;3.40;;;2.83;;
505;SDS011;551;48.524;9.056;2023-04-03T02:40:59;5.50;;;3.40;;
505;SDS011;551;48.524;9.056;2023-04-03T02:43:25;3.63;;;3.13;;
505;SDS011;551;48.524;9.056;2023-04-03T02:45:51;4.40;;;3.73;;
505;SDS011;551;48.524;9.056;2023-04-03T02:48:16;3.50;;;3.20;;
505;SDS011;551;48.524;9.056;2023-04-03T02:50:42;4.03;;;3.63;;
505;SDS011;551;48.524;9.056;2023-04-03T02:53:07;2.90;;;2.70;;
505;SDS011;551;48.524;9.056;2023-04-03T02:55:33;3.57;;;3.27;;
505;SDS011;551;48.524;9.056;2023-04-03T02:57:58;5.30;;;3.03;;
505;SDS011;551;48.524;9.056;2023-04-03T03:00:24;3.40;;;3.10;;
505;SDS011;551;48.524;9.056;2023-04-03T03:02:53;5.17;;;3.17;;
505;SDS011;551;48.524;9.056;2023-04-03T03:05:18;4.23;;;3.00;;
505;SDS011;551;48.524;9.056;2023-04-03T03:07:44;4.00;;;3.10;;
505;SDS011;551;48.524;9.056;2023-04-03T03:10:09;3.47;;;3.17;;
505;SDS011;551;48.524;9.056;2023-04-03T03:12:35;4.13;;;3.73;;
505;SDS011;551;48.524;9.056;2023-04-03T03:15:00;2.87;;;2.67;;
505;SDS011;551;48.524;9.056;2023-04-03T03:17:26;7.27;;;3.00;;
505;SDS011;551;48.524;9.056;2023-04-03T03:19:51;3.10;;;2.90;;
505;SDS011;551;48.524;9.056;2023-04-03T03:22:17;4.77;;;3.50;;
505;SDS011;551;48.524;9.056;2023-04-03T03:24:43;3.73;;;3.23;;
505;SDS011;551;48.524;9.056;2023-04-03T03:27:08;5.20;;;3.20;;
505;SDS011;551;48.524;9.056;2023-04-03T03:29:34;4.30;;;3.60;;
505;SDS011;551;48.524;9.056;2023-04-03T03:31:59;2.97;;;2.73;;
505;SDS011;551;48.524;9.056;2023-04-03T03:34:25;3.17;;;2.87;;
505;SDS011;551;48.524;9.056;2023-04-03T03:36:50;3.70;;;3.20;;
505;SDS011;551;48.524;9.056;2023-04-03T03:39:16;3.17;;;2.87;;
505;SDS011;551;48.524;9.056;2023-04-03T03:41:42;4.07;;;3.40;;
505;SDS011;551;48.524;9.056;2023-04-03T03:44:07;3.60;;;3.13;;
505;SDS011;551;48.524;9.056;2023-04-03T03:46:33;4.20;;;3.40;;
505;SDS011;551;48.524;9.056;2023-04-03T03:48:58;3.33;;;3.03;;
505;SDS011;551;48.524;9.056;2023-04-03T03:51:24;4.30;;;3.13;;
505;SDS011;551;48.524;9.056;2023-04-03T03:53:50;4.00;;;3.63;;
505;SDS011;551;48.524;9.056;2023-04-03T03:56:15;4.90;;;3.13;;
505;SDS011;551;48.524;9.056;2023-04-03T03:58:41;3.37;;;3.10;;
505;SDS011;551;48.524;9.056;2023-04-03T04:01:07;4.20;;;3.30;;
505;SDS011;551;48.524;9.056;2023-04-03T04:03:32;3.23;;;2.93;;
505;SDS011;551;48.524;9.056;2023-04-03T04:05:58;3.50;;;3.20;;
505;SDS011;551;48.524;9.056;2023-04-03T04:08:27;4.23;;;3.70;;
505;SDS011;551;48.524;9.056;2023-04-03T04:10:52;3.23;;;2.90;;
505;SDS011;551;48.524;9.056;2023-04-03T04:13:18;4.43;;;2.83;;
505;SDS011;551;48.524;9.056;2023-04-03T04:15:43;4.63;;;3.30;;
505;SDS011;551;48.524;9.056;2023-04-03T04:18:09;3.70;;;3.40;;
505;SDS011;551;48.524;9.056;2023-04-03T04:20:35;2.90;;;2.70;;
505;SDS011;551;48.524;9.056;2023-04-03T04:23:00;3.43;;;3.13;;
505;SDS011;551;48.524;9.056;2023-04-03T04:25:26;5.00;;;3.47;;
505;SDS011;551;48.524;9.056;2023-04-03T04:27:51;4.20;;;3.30;;
505;SDS011;551;48.524;9.056;2023-04-03T04:30:17;3.77;;;3.10;;
505;SDS011;551;48.524;9.056;2023-04-03T04:32:42;2.93;;;2.73;;
505;SDS011;551;48.524;9.056;2023-04-03T04:35:08;3.67;;;3.30;;
505;SDS011;551;48.524;9.056;2023-04-03T04:37:34;4.13;;;3.73;;
505;SDS011;551;48.524;9.056;2023-04-03T04:40:00;3.23;;;2.90;;
505;SDS011;551;48.524;9.056;2023-04-03T04:42:25;4.43;;;3.13;;
505;SDS011;551;48.524;9.056;2023-04-03T04:44:51;3.40;;;2.73;;
505;SDS011;551;48.524;9.056;2023-04-03T04:47:16;5.27;;;3.00;;
505;SDS011;551;48.524;9.056;2023-04-03T04:49:42;5.40;;;3.70;;
505;SDS011;551;48.524;9.056;2023-04-03T04:52:07;4.97;;;3.20;;
505;SDS011;551;48.524;9.056;2023-04-03T04:54:33;4.37;;;3.97;;
505;SDS011;551;48.524;9.056;2023-04-03T04:56:59;3.30;;;3.00;;
505;SDS011;551;48.524;9.056;2023-04-03T04:59:24;4.30;;;3.47;;
505;SDS011;551;48.524;9.056;2023-04-03T05:01:50;4.33;;;3.90;;
505;SDS011;551;48.524;9.056;2023-04-03T05:04:15;3.40;;;3.10;;
505;SDS011;551;48.524;9.056;2023-04-03T05:06:41;4.70;;;3.30;;
505;SDS011;551;48.524;9.056;2023-04-03T05:09:06;8.03;;;2.97;;
505;SDS011;551;48.524;9.056;2023-04-03T05:11:32;3.73;;;2.90;;
505;SDS011;551;48.524;9.056;2023-04-03T05:13:58;4.23;;;3.00;;
505;SDS011;551;48.524;9.056;2023-04-03T05:16:23;4.67;;;3.37;;
505;SDS011;551;48.524;9.056;2023-04-03T05:18:50;5.17;;;3.60;;
505;SDS011;551;48.524;9.056;2023-04-03T05:21:15;9.37;;;3.70;;
505;SDS011;551;48.524;9.056;2023-04-03T05:23:43;3.30;;;3.00;;
505;SDS011;551;48.524;9.056;2023-04-03T05:26:08;3.73;;;3.43;;
505;SDS011;551;48.524;9.056;2023-04-03T05:28:34;5.20;;;3.40;;
505;SDS011;551;48.524;9.056;2023-04-03T05:30:59;6.17;;;3.83;;
505;SDS011;551;48.524;9.056;2023-04-03T05:33:25;3.00;;;2.80;;
505;SDS011;551;48.524;9.056;2023-04-03T05:35:51;5.27;;;3.80;;
505;SDS011;551;48.524;9.056;2023-04-03T05:38:18;4.23;;;3.53;;
505;SDS011;551;48.524;9.056;2023-04-03T05:40:43;3.80;;;3.30;;
505;SDS011;551;48.524;9.056;2023-04-03T05:43:09;4.13;;;3.30;;
505;SDS011;551;48.524;9.056;2023-04-03T05:45:35;5.07;;;2.60;;
505;SDS011;551;48.524;9.056;2023-04-03T05:48:00;2.93;;;2.63;;
505;SDS011;551;48.524;9.056;2023-04-03T05:50:26;4.20;;;3.47;;
505;SDS011;551;48.524;9.056;2023-04-03T05:52:52;2.50;;;2.30;;
505;SDS011;551;48.524;9.056;2023-04-03T05:55:20;2.73;;;2.53;;
505;SDS011;551;48.524;9.056;2023-04-03T05:57:45;4.10;;;3.30;;
505;SDS011;551;48.524;9.056;2023-04-03T06:00:15;4.10;;;3.30;;
505;SDS011;551;48.524;9.056;2023-04-03T06:02:41;8.23;;;2.70;;
505;SDS011;551;48.524;9.056;2023-04-03T06:05:08;2.87;;;2.57;;
505;SDS011;551;48.524;9.056;2023-04-03T06:07:37;3.73;;;2.80;;
505;SDS011;551;48.524;9.056;2023-04-03T06:10:03;5.07;;;3.20;;
505;SDS011;551;48.524;9.056;2023-04-03T06:12:30;3.53;;;2.70;;
505;SDS011;551;48.524;9.056;2023-04-03T06:14:55;5.87;;;2.63;;
505;SDS011;551;48.524;9.056;2023-04-03T06:17:21;2.40;;;2.20;;
505;SDS011;551;48.524;9.056;2023-04-03T06:19:47;4.03;;;3.37;;
505;SDS011;551;48.524;9.056;2023-04-03T06:22:13;3.83;;;2.53;;
505;SDS011;551;48.524;9.056;2023-04-03T06:24:38;2.60;;;2.40;;
505;SDS011;551;48.524;9.056;2023-04-03T06:27:04;2.63;;;2.10;;
505;SDS011;551;48.524;9.056;2023-04-03T06:29:30;2.33;;;2.17;;
505;SDS011;551;48.524;9.056;2023-04-03T06:31:55;2.73;;;2.50;;
505;SDS011;551;48.524;9.056;2023-04-03T06:34:21;2.40;;;2.20;;
505;SDS011;551;48.524;9.056;2023-04-03T06:36:47;3.40;;;2.10;;
505;SDS011;551;48.524;9.056;2023-04-03T06:39:15;2.37;;;1.90;;
505;SDS011;551;48.524;9.056;2023-04-03T06:41:48;3.77;;;2.50;;
505;SDS011;551;48.524;9.056;2023-04-03T06:44:15;2.80;;;2.60;;
505;SDS011;551;48.524;9.056;2023-04-03T06:46:41;4.60;;;2.63;;
505;SDS011;551;48.524;9.056;2023-04-03T06:49:07;2.70;;;2.50;;
505;SDS011;551;48.524;9.056;2023-04-03T06:51:34;2.70;;;2.27;;
505;SDS011;551;48.524;9.056;2023-04-03T06:54:00;3.60;;;2.50;;
505;SDS011;551;48.524;9.056;2023-04-03T06:56:27;2.17;;;2.00;;
505;SDS011;551;48.524;9.056;2023-04-03T06:58:53;8.70;;;2.60;;
505;SDS011;551;48.524;9.056;2023-04-03T07:01:21;2.70;;;2.20;;
505;SDS011;551;48.524;9.056;2023-04-03T07:03:48;3.43;;;2.07;;
505;SDS011;551;48.524;9.056;2023-04-03T07:06:14;5.00;;;2.33;;
505;SDS011;551;48.524;9.056;2023-04-03T07:08:41;3.07;;;2.87;;
505;SDS011;551;48.524;9.056;2023-04-03T07:11:07;3.30;;;2.50;;
505;SDS011;551;48.524;9.056;2023-04-03T07:13:34;2.40;;;2.00;;
505;SDS011;551;48.524;9.056;2023-04-03T07:16:00;3.70;;;2.57;;
505;SDS011;551;48.524;9.056;2023-04-03T07:18:26;3.57;;;2.80;;
505;SDS011;551;48.524;9.056;2023-04-03T07:20:51;2.77;;;2.50;;
505;SDS011;551;48.524;9.056;2023-04-03T07:23:17;3.50;;;2.40;;
505;SDS011;551;48.524;9.056;2023-04-03T07:25:43;3.77;;;2.60;;
505;SDS011;551;48.524;9.056;2023-04-03T07:28:13;3.33;;;2.87;;
505;SDS011;551;48.524;9.056;2023-04-03T07:30:46;3.10;;;2.30;;
505;SDS011;551;48.524;9.056;2023-04-03T07:33:16;2.80;;;2.13;;
505;SDS011;551;48.524;9.056;2023-04-03T07:35:44;2.50;;;2.30;;
505;SDS011;551;48.524;9.056;2023-04-03T07:38:10;2.70;;;2.50;;
505;SDS011;551;48.524;9.056;2023-04-03T07:40:36;2.87;;;2.20;;
505;SDS011;551;48.524;9.056;2023-04-03T07:43:02;2.63;;;2.23;;
505;SDS011;551;48.524;9.056;2023-04-03T07:45:28;2.87;;;2.67;;
505;SDS011;551;48.524;9.056;2023-04-03T07:47:54;4.40;;;2.40;;
505;SDS011;551;48.524;9.056;2023-04-03T07:50:20;2.83;;;2.60;;
505;SDS011;551;48.524;9.056;2023-04-03T07:52:47;2.20;;;2.00;;
505;SDS011;551;48.524;9.056;2023-04-03T07:55:13;2.57;;;2.37;;
505;SDS011;551;48.524;9.056;2023-04-03T07:57:38;2.37;;;2.10;;
505;SDS011;551;48.524;9.056;2023-04-03T08:00:05;2.87;;;2.60;;
505;SDS011;551;48.524;9.056;2023-04-03T08:02:31;3.00;;;2.37;;
505;SDS011;551;48.524;9.056;2023-04-03T08:04:57;2.47;;;2.27;;
505;SDS011;551;48.524;9.056;2023-04-03T08:07:23;2.60;;;2.40;;
505;SDS011;551;48.524;9.056;2023-04-03T08:09:49;3.40;;;2.43;;
505;SDS011;551;48.524;9.056;2023-04-03T08:12:15;6.20;;;2.57;;
505;SDS011;551;48.524;9.056;2023-04-03T08:14:41;2.30;;;2.10;;
505;SDS011;551;48.524;9.056;2023-04-03T08:17:06;5.43;;;2.67;;
505;SDS011;551;48.524;9.056;2023-04-03T08:19:36;4.03;;;2.60;;
505;SDS011;551;48.524;9.056;2023-04-03T08:22:04;3.20;;;2.90;;
505;SDS011;551;48.524;9.056;2023-04-03T08:24:31;3.10;;;2.37;;
505;SDS011;551;48.524;9.056;2023-04-03T08:26:58;2.80;;;2.60;;
505;SDS011;551;48.524;9.056;2023-04-03T08:29:24;2.53;;;2.30;;
505;SDS011;551;48.524;9.056;2023-04-03T08:31:50;3.37;;;2.63;;
505;SDS011;551;48.524;9.056;2023-04-03T08:34:16;4.20;;;2.73;;
505;SDS011;551;48.524;9.056;2023-04-03T08:36:42;4.37;;;2.40;;
505;SDS011;551;48.524;9.056;2023-04-03T08:39:08;2.73;;;2.53;;
505;SDS011;551;48.524;9.056;2023-04-03T08:41:43;3.20;;;2.60;;
505;SDS011;551;48.524;9.056;2023-04-03T08:44:14;5.30;;;2.50;;
505;SDS011;551;48.524;9.056;2023-04-03T08:46:54;2.73;;;2.50;;
505;SDS011;551;48.524;9.056;2023-04-03T08:49:50;6.53;;;2.90;;
505;SDS011;551;48.524;9.056;2023-04-03T08:52:33;2.57;;;2.37;;
505;SDS011;551;48.524;9.056;2023-04-03T08:55:21;5.67;;;3.03;;
505;SDS011;551;48.524;9.056;2023-04-03T08:57:57;3.57;;;2.60;;
505;SDS011;551;48.524;9.056;2023-04-03T09:00:34;4.70;;;2.30;;
505;SDS011;551;48.524;9.056;2023-04-03T09:03:23;3.03;;;2.50;;
505;SDS011;551;48.524;9.056;2023-04-03T09:11:36;8.03;;;2.57;;
505;SDS011;551;48.524;9.056;2023-04-03T09:14:22;2.83;;;2.43;;
505;SDS011;551;48.524;9.056;2023-04-03T09:17:07;5.90;;;2.40;;
505;SDS011;551;48.524;9.056;2023-04-03T09:19:41;2.93;;;2.70;;
505;SDS011;551;48.524;9.056;2023-04-03T09:22:26;3.13;;;2.83;;
505;SDS011;551;48.524;9.056;2023-04-03T09:27:35;2.40;;;2.30;;
505;SDS011;551;48.524;9.056;2023-04-03T09:30:00;3.53;;;2.57;;
505;SDS011;551;48.524;9.056;2023-04-03T09:32:30;4.30;;;2.60;;
505;SDS011;551;48.524;9.056;2023-04-03T09:35:15;2.80;;;2.47;;
505;SDS011;551;48.524;9.056;2023-04-03T09:37:45;4.67;;;2.43;;
505;SDS011;551;48.524;9.056;2023-04-03T09:42:51;3.00;;;2.70;;
505;SDS011;551;48.524;9.056;2023-04-03T09:48:07;3.50;;;2.73;;
505;SDS011;551;48.524;9.056;2023-04-03T09:58:40;2.70;;;2.50;;
505;SDS011;551;48.524;9.056;2023-04-03T10:01:20;4.40;;;2.63;;
505;SDS011;551;48.524;9.056;2023-04-03T10:06:48;3.43;;;2.63;;
505;SDS011;551;48.524;9.056;2023-04-03T10:09:20;4.17;;;3.00;;
505;SDS011;551;48.524;9.056;2023-04-03T10:14:32;2.80;;;2.50;;
505;SDS011;551;48.524;9.056;2023-04-03T10:17:06;3.13;;;2.90;;
505;SDS011;551;48.524;9.056;2023-04-03T10:19:58;4.70;;;2.93;;
505;SDS011;551;48.524;9.056;2023-04-03T10:25:13;2.70;;;2.47;;
505;SDS011;551;48.524;9.056;2023-04-03T10:27:53;2.93;;;2.63;;
505;SDS011;551;48.524;9.056;2023-04-03T10:39:17;2.87;;;2.67;;
505;SDS011;551;48.524;9.056;2023-04-03T10:42:15;2.38;;;2.17;;
505;SDS011;551;48.524;9.056;2023-04-03T10:45:01;2.90;;;2.50;;
505;SDS011;551;48.524;9.056;2023-04-03T10:53:05;2.70;;;2.50;;
505;SDS011;551;48.524;9.056;2023-04-03T10:58:26;2.60;;;2.40;;
505;SDS011;551;48.524;9.056;2023-04-03T11:00:53;2.90;;;2.53;;
505;SDS011;551;48.524;9.056;2023-04-03T11:03:42;3.40;;;2.50;;
505;SDS011;551;48.524;9.056;2023-04-03T11:06:12;4.90;;;2.37;;
505;SDS011;551;48.524;9.056;2023-04-03T11:11:09;4.33;;;3.17;;
505;SDS011;551;48.524;9.056;2023-04-03T11:13:43;2.50;;;2.23;;
505;SDS011;551;48.524;9.056;2023-04-03T11:16:18;2.65;;;2.40;;
505;SDS011;551;48.524;9.056;2023-04-03T11:19:05;3.30;;;2.40;;
505;SDS011;551;48.524;9.056;2023-04-03T11:21:54;2.60;;;2.20;;
505;SDS011;551;48.524;9.056;2023-04-03T11:24:29;4.03;;;2.43;;
505;SDS011;551;48.524;9.056;2023-04-03T11:26:58;3.10;;;2.33;;
505;SDS011;551;48.524;9.056;2023-04-03T11:29:34;6.10;;;2.10;;
505;SDS011;551;48.524;9.056;2023-04-03T11:35:06;2.20;;;2.10;;
505;SDS011;551;48.524;9.056;2023-04-03T11:40:18;2.47;;;2.10;;
505;SDS011;551;48.524;9.056;2023-04-03T11:42:55;2.60;;;1.97;;
505;SDS011;551;48.524;9.056;2023-04-03T11:45:34;3.97;;;2.40;;
505;SDS011;551;48.524;9.056;2023-04-03T11:50:52;2.33;;;2.13;;
505;SDS011;551;48.524;9.056;2023-04-03T11:53:28;4.00;;;1.93;;
505;SDS011;551;48.524;9.056;2023-04-03T11:58:31;6.53;;;2.60;;
505;SDS011;551;48.524;9.056;2023-04-03T12:13:36;2.03;;;1.83;;
505;SDS011;551;48.524;9.056;2023-04-03T12:29:27;3.50;;;2.00;;
505;SDS011;551;48.524;9.056;2023-04-03T12:40:10;5.23;;;2.40;;
505;SDS011;551;48.524;9.056;2023-04-03T12:42:44;2.30;;;1.73;;
505;SDS011;551;48.524;9.056;2023-04-03T12:45:20;7.80;;;2.50;;
505;SDS011;551;48.524;9.056;2023-04-03T12:47:51;2.50;;;1.83;;
505;SDS011;551;48.524;9.056;2023-04-03T12:52:54;2.10;;;1.90;;
505;SDS011;551;48.524;9.056;2023-04-03T12:55:24;4.87;;;2.43;;
505;SDS011;551;48.524;9.056;2023-04-03T12:57:49;4.07;;;2.03;;
505;SDS011;551;48.524;9.056;2023-04-03T13:00:19;2.70;;;1.90;;
505;SDS011;551;48.524;9.056;2023-04-03T13:02:45;2.23;;;1.97;;
505;SDS011;551;48.524;9.056;2023-04-03T13:05:13;4.97;;;1.90;;
505;SDS011;551;48.524;9.056;2023-04-03T13:07:43;2.90;;;2.40;;
505;SDS011;551;48.524;9.056;2023-04-03T13:10:14;2.70;;;1.77;;
505;SDS011;551;48.524;9.056;2023-04-03T13:12:49;4.10;;;2.40;;
505;SDS011;551;48.524;9.056;2023-04-03T13:15:16;4.30;;;2.60;;
505;SDS011;551;48.524;9.056;2023-04-03T13:17:47;3.83;;;2.43;;
505;SDS011;551;48.524;9.056;2023-04-03T13:20:17;2.63;;;1.90;;
505;SDS011;551;48.524;9.056;2023-04-03T13:22:59;3.20;;;2.17;;
505;SDS011;551;48.524;9.056;2023-04-03T13:25:28;5.07;;;2.23;;
505;SDS011;551;48.524;9.056;2023-04-03T13:27:56;2.07;;;1.83;;
505;SDS011;551;48.524;9.056;2023-04-03T13:30:31;6.60;;;2.50;;
505;SDS011;551;48.524;9.056;2023-04-03T13:33:04;4.10;;;2.00;;
505;SDS011;551;48.524;9.056;2023-04-03T13:35:43;2.03;;;1.90;;
505;SDS011;551;48.524;9.056;2023-04-03T13:40:53;3.33;;;2.47;;
505;SDS011;551;48.524;9.056;2023-04-03T13:43:26;3.40;;;2.23;;
505;SDS011;551;48.524;9.056;2023-04-03T13:45:55;4.53;;;2.80;;
505;SDS011;551;48.524;9.056;2023-04-03T13:48:37;2.40;;;1.80;;
505;SDS011;551;48.524;9.056;2023-04-03T13:51:07;2.17;;;1.80;;
505;SDS011;551;48.524;9.056;2023-04-03T13:53:58;2.37;;;2.17;;
505;SDS011;551;48.524;9.056;2023-04-03T13:56:34;4.10;;;2.27;;
505;SDS011;551;48.524;9.056;2023-04-03T14:01:39;1.87;;;1.70;;
505;SDS011;551;48.524;9.056;2023-04-03T14:04:25;1.90;;;1.80;;
505;SDS011;551;48.524;9.056;2023-04-03T14:06:53;2.57;;;2.00;;
505;SDS011;551;48.524;9.056;2023-04-03T14:09:19;3.67;;;2.33;;
505;SDS011;551;48.524;9.056;2023-04-03T14:11:47;4.20;;;2.50;;
505;SDS011;551;48.524;9.056;2023-04-03T14:14:16;2.83;;;2.07;;
505;SDS011;551;48.524;9.056;2023-04-03T14:16:46;3.40;;;2.47;;
505;SDS011;551;48.524;9.056;2023-04-03T14:19:20;3.20;;;2.07;;
505;SDS011;551;48.524;9.056;2023-04-03T14:21:51;4.67;;;2.87;;
505;SDS011;551;48.524;9.056;2023-04-03T14:24:20;2.10;;;1.87;;
505;SDS011;551;48.524;9.056;2023-04-03T14:26:46;3.40;;;2.70;;
505;SDS011;551;48.524;9.056;2023-04-03T14:29:13;2.73;;;2.40;;
505;SDS011;551;48.524;9.056;2023-04-03T14:31:40;3.60;;;2.40;;
505;SDS011;551;48.524;9.056;2023-04-03T14:34:08;3.60;;;2.27;;
505;SDS011;551;48.524;9.056;2023-04-03T14:36:35;5.60;;;2.80;;
505;SDS011;551;48.524;9.056;2023-04-03T14:39:01;3.33;;;2.27;;
505;SDS011;551;48.524;9.056;2023-04-03T14:41:28;5.17;;;2.27;;
505;SDS011;551;48.524;9.056;2023-04-03T14:43:54;2.60;;;2.40;;
505;SDS011;551;48.524;9.056;2023-04-03T14:46:28;2.57;;;2.37;;
505;SDS011;551;48.524;9.056;2023-04-03T14:48:59;2.20;;;2.00;;
505;SDS011;551;48.524;9.056;2023-04-03T14:51:25;2.00;;;1.90;;
505;SDS011;551;48.524;9.056;2023-04-03T14:53:51;2.90;;;1.87;;
505;SDS011;551;48.524;9.056;2023-04-03T14:56:25;2.70;;;2.20;;
505;SDS011;551;48.524;9.056;2023-04-03T14:58:57;2.63;;;2.20;;
505;SDS011;551;48.524;9.056;2023-04-03T15:01:25;3.00;;;2.23;;
505;SDS011;551;48.524;9.056;2023-04-03T15:03:52;3.00;;;2.13;;
505;SDS011;551;48.524;9.056;2023-04-03T15:06:17;5.10;;;2.60;;
505;SDS011;551;48.524;9.056;2023-04-03T15:08:44;2.37;;;2.10;;
505;SDS011;551;48.524;9.056;2023-04-03T15:11:12;4.67;;;2.70;;
505;SDS011;551;48.524;9.056;2023-04-03T15:13:38;2.20;;;2.00;;
505;SDS011;551;48.524;9.056;2023-04-03T15:16:05;3.07;;;2.80;;
505;SDS011;551;48.524;9.056;2023-04-03T15:18:37;2.40;;;2.00;;
505;SDS011;551;48.524;9.056;2023-04-03T15:21:03;2.87;;;2.20;;
505;SDS011;551;48.524;9.056;2023-04-03T15:23:29;5.40;;;2.27;;
505;SDS011;551;48.524;9.056;2023-04-03T15:25:55;2.70;;;2.50;;
505;SDS011;551;48.524;9.056;2023-04-03T15:28:26;3.77;;;2.50;;
505;SDS011;551;48.524;9.056;2023-04-03T15:30:55;3.47;;;2.00;;
505;SDS011;551;48.524;9.056;2023-04-03T15:33:20;2.57;;;2.00;;
505;SDS011;551;48.524;9.056;2023-04-03T15:35:46;5.40;;;2.20;;
505;SDS011;551;48.524;9.056;2023-04-03T15:38:11;2.23;;;1.90;;
505;SDS011;551;48.524;9.056;2023-04-03T15:40:37;3.63;;;1.93;;
505;SDS011;551;48.524;9.056;2023-04-03T15:43:04;2.60;;;2.37;;
505;SDS011;551;48.524;9.056;2023-04-03T15:45:30;2.60;;;2.20;;
505;SDS011;551;48.524;9.056;2023-04-03T15:47:56;3.50;;;2.20;;
505;SDS011;551;48.524;9.056;2023-04-03T15:50:22;2.50;;;2.30;;
505;SDS011;551;48.524;9.056;2023-04-03T15:52:49;3.73;;;2.50;;
505;SDS011;551;48.524;9.056;2023-04-03T15:55:23;3.57;;;2.63;;
505;SDS011;551;48.524;9.056;2023-04-03T15:57:51;4.40;;;2.63;;
505;SDS011;551;48.524;9.056;2023-04-03T16:00:17;2.63;;;2.30;;
505;SDS011;551;48.524;9.056;2023-04-03T16:02:44;2.50;;;2.00;;
505;SDS011;551;48.524;9.056;2023-04-03T16:05:11;3.40;;;2.30;;
505;SDS011;551;48.524;9.056;2023-04-03T16:07:38;2.33;;;2.10;;
505;SDS011;551;48.524;9.056;2023-04-03T16:10:05;2.63;;;2.43;;
505;SDS011;551;48.524;9.056;2023-04-03T16:12:32;4.50;;;2.50;;
505;SDS011;551;48.524;9.056;2023-04-03T16:14:57;2.70;;;2.50;;
505;SDS011;551;48.524;9.056;2023-04-03T16:17:23;3.20;;;2.20;;
505;SDS011;551;48.524;9.056;2023-04-03T16:19:49;2.67;;;1.90;;
505;SDS011;551;48.524;9.056;2023-04-03T16:22:14;4.23;;;2.40;;
505;SDS011;551;48.524;9.056;2023-04-03T16:24:40;2.20;;;2.00;;
505;SDS011;551;48.524;9.056;2023-04-03T16:27:05;4.77;;;2.60;;
505;SDS011;551;48.524;9.056;2023-04-03T16:29:31;3.53;;;2.40;;
505;SDS011;551;48.524;9.056;2023-04-03T16:31:57;2.67;;;2.47;;
505;SDS011;551;48.524;9.056;2023-04-03T16:34:23;2.53;;;2.33;;
505;SDS011;551;48.524;9.056;2023-04-03T16:36:50;3.03;;;2.60;;
505;SDS011;551;48.524;9.056;2023-04-03T16:39:17;2.40;;;2.20;;
505;SDS011;551;48.524;9.056;2023-04-03T16:41:43;5.13;;;2.37;;
505;SDS011;551;48.524;9.056;2023-04-03T16:44:08;2.03;;;1.70;;
505;SDS011;551;48.524;9.056;2023-04-03T16:46:34;3.00;;;2.33;;
505;SDS011;551;48.524;9.056;2023-04-03T16:49:00;2.47;;;2.37;;
505;SDS011;551;48.524;9.056;2023-04-03T16:51:25;2.47;;;2.27;;
505;SDS011;551;48.524;9.056;2023-04-03T16:53:51;5.20;;;2.40;;
505;SDS011;551;48.524;9.056;2023-04-03T16:56:16;3.33;;;2.30;;
505;SDS011;551;48.524;9.056;2023-04-03T16:58:42;4.50;;;2.10;;
505;SDS011;551;48.524;9.056;2023-04-03T17:01:08;3.07;;;2.10;;
505;SDS011;551;48.524;9.056;2023-04-03T17:03:39;2.30;;;1.97;;
505;SDS011;551;48.524;9.056;2023-04-03T17:06:04;2.40;;;1.93;;
505;SDS011;551;48.524;9.056;2023-04-03T17:08:30;5.30;;;2.40;;
505;SDS011;551;48.524;9.056;2023-04-03T17:10:56;3.97;;;2.40;;
505;SDS011;551;48.524;9.056;2023-04-03T17:13:21;2.60;;;2.40;;
505;SDS011;551;48.524;9.056;2023-04-03T17:15:47;5.00;;;2.90;;
505;SDS011;551;48.524;9.056;2023-04-03T17:18:13;2.60;;;2.40;;
505;SDS011;551;48.524;9.056;2023-04-03T17:20:38;3.50;;;2.20;;
505;SDS011;551;48.524;9.056;2023-04-03T17:23:04;3.37;;;2.17;;
505;SDS011;551;48.524;9.056;2023-04-03T17:25:30;3.13;;;2.00;;
505;SDS011;551;48.524;9.056;2023-04-03T17:27:56;4.10;;;2.60;;
505;SDS011;551;48.524;9.056;2023-04-03T17:30:21;2.63;;;2.43;;
505;SDS011;551;48.524;9.056;2023-04-03T17:32:47;2.50;;;2.30;;
505;SDS011;551;48.524;9.056;2023-04-03T17:35:13;2.70;;;2.30;;
505;SDS011;551;48.524;9.056;2023-04-03T17:37:38;2.53;;;1.93;;
505;SDS011;551;48.524;9.056;2023-04-03T17:40:04;2.07;;;1.90;;
505;SDS011;551;48.524;9.056;2023-04-03T17:42:30;2.60;;;2.40;;